createdAt,value
2023-12-21T00:00:33.115Z,6.07
2023-12-21T00:03:01.888Z,3.33
2023-12-21T00:05:30.354Z,3.08
2023-12-21T00:08:00.325Z,3.45
2023-12-21T00:10:28.872Z,2.47
2023-12-21T00:12:57.396Z,2.60
2023-12-21T00:15:26.330Z,2.67
2023-12-21T00:17:54.680Z,1.95
2023-12-21T00:20:23.596Z,1.45
2023-12-21T00:22:51.982Z,3.35
2023-12-21T00:25:21.820Z,2.50
2023-12-21T00:27:50.313Z,2.42
2023-12-21T00:30:19.496Z,3.90
2023-12-21T00:32:47.963Z,2.40
2023-12-21T00:35:17.020Z,2.35
2023-12-21T00:37:46.426Z,1.40
2023-12-21T00:40:15.378Z,1.90
2023-12-21T00:42:45.494Z,1.02
2023-12-21T00:45:14.039Z,1.10
2023-12-21T00:47:42.807Z,1.27
2023-12-21T00:50:11.726Z,1.27
2023-12-21T00:52:40.582Z,0.40
2023-12-21T00:55:10.165Z,1.08
2023-12-21T00:57:38.619Z,1.42
2023-12-21T01:00:10.555Z,1.70
2023-12-21T01:02:39.615Z,1.25
2023-12-21T01:05:09.019Z,0.82
2023-12-21T01:07:37.758Z,0.77
2023-12-21T01:10:06.924Z,2.22
2023-12-21T01:12:35.701Z,0.40
2023-12-21T01:15:04.590Z,1.02
2023-12-21T01:17:34.838Z,1.20
2023-12-21T01:20:03.330Z,0.40
2023-12-21T01:22:31.822Z,0.70
2023-12-21T01:25:00.386Z,0.68
2023-12-21T01:27:32.806Z,0.63
2023-12-21T01:30:01.707Z,0.60
2023-12-21T01:32:30.397Z,1.55
2023-12-21T01:37:28.570Z,0.77
2023-12-21T01:39:57.326Z,0.55
2023-12-21T01:42:26.017Z,0.73
2023-12-21T01:44:54.359Z,0.43
2023-12-21T01:47:23.443Z,0.47
2023-12-21T01:49:52.252Z,0.50
2023-12-21T01:52:23.456Z,0.55
2023-12-21T01:54:52.215Z,0.20
2023-12-21T01:57:20.797Z,0.40
2023-12-21T01:59:50.415Z,0.30
2023-12-21T02:02:18.849Z,0.38
2023-12-21T02:04:47.751Z,0.40
2023-12-21T02:07:16.352Z,0.30
2023-12-21T02:09:46.552Z,1.65
2023-12-21T02:12:15.553Z,0.60
2023-12-21T02:14:44.368Z,0.60
2023-12-21T02:17:16.518Z,0.60
2023-12-21T02:19:45.359Z,1.00
2023-12-21T02:22:16.266Z,0.52
2023-12-21T02:24:46.912Z,0.40
2023-12-21T02:27:15.270Z,0.57
2023-12-21T02:29:43.959Z,0.40
2023-12-21T02:32:12.363Z,0.40
2023-12-21T02:34:41.104Z,0.30
2023-12-21T02:39:57.105Z,0.73
2023-12-21T02:42:25.971Z,1.60
2023-12-21T02:44:54.668Z,0.50
2023-12-21T02:47:23.018Z,0.88
2023-12-21T02:49:53.413Z,0.32
2023-12-21T02:52:22.437Z,0.45
2023-12-21T02:54:51.174Z,0.35
2023-12-21T02:57:20.909Z,0.50
2023-12-21T02:59:49.588Z,0.40
2023-12-21T03:02:18.256Z,0.30
2023-12-21T03:04:46.766Z,0.40
2023-12-21T03:07:15.470Z,0.50
2023-12-21T03:09:42.870Z,0.73
2023-12-21T03:12:11.470Z,0.22
2023-12-21T03:14:41.585Z,0.90
2023-12-21T03:17:10.084Z,0.50
2023-12-21T03:19:39.014Z,0.30
2023-12-21T03:22:07.518Z,0.80
2023-12-21T03:24:36.311Z,0.68
2023-12-21T03:27:04.864Z,0.50
2023-12-21T03:29:33.574Z,0.85
2023-12-21T03:32:03.696Z,0.38
2023-12-21T03:34:32.137Z,1.08
2023-12-21T03:37:00.628Z,0.70
2023-12-21T03:39:29.004Z,1.00
2023-12-21T03:41:58.427Z,0.98
2023-12-21T03:44:26.754Z,0.50
2023-12-21T03:46:55.128Z,0.63
2023-12-21T03:49:26.368Z,0.17
2023-12-21T03:51:54.834Z,0.73
2023-12-21T03:54:23.150Z,0.30
2023-12-21T03:56:51.715Z,0.88
2023-12-21T03:59:20.091Z,0.40
2023-12-21T04:01:48.841Z,0.70
2023-12-21T04:04:17.270Z,0.60
2023-12-21T04:06:47.448Z,1.02
2023-12-21T04:09:15.901Z,1.13
2023-12-21T04:11:44.632Z,0.65
2023-12-21T04:14:12.963Z,0.50
2023-12-21T04:16:42.493Z,0.88
2023-12-21T04:19:11.526Z,0.60
2023-12-21T04:21:42.836Z,0.45
2023-12-21T04:24:12.905Z,0.80
2023-12-21T04:26:41.537Z,1.20
2023-12-21T04:29:09.943Z,0.40
2023-12-21T04:31:42.404Z,0.70
2023-12-21T04:34:11.137Z,1.02
2023-12-21T04:36:40.036Z,0.77
2023-12-21T04:39:08.417Z,0.95
2023-12-21T04:41:38.197Z,0.82
2023-12-21T04:44:07.132Z,2.15
2023-12-21T04:46:36.045Z,0.57
2023-12-21T04:49:04.743Z,0.90
2023-12-21T04:51:33.112Z,0.80
2023-12-21T04:54:01.796Z,1.08
2023-12-21T04:56:30.177Z,1.13
2023-12-21T04:59:00.362Z,1.30
2023-12-21T05:01:28.799Z,0.70
2023-12-21T05:03:57.576Z,2.00
2023-12-21T05:06:26.072Z,1.33
2023-12-21T05:08:56.337Z,3.25
2023-12-21T05:11:24.724Z,1.40
2023-12-21T05:13:53.420Z,1.15
2023-12-21T05:16:23.191Z,1.15
2023-12-21T05:18:51.999Z,0.93
2023-12-21T05:21:20.402Z,1.27
2023-12-21T05:23:48.725Z,1.38
2023-12-21T05:26:18.255Z,1.40
2023-12-21T05:28:47.098Z,1.42
2023-12-21T05:31:15.539Z,0.57
2023-12-21T05:33:45.380Z,3.47
2023-12-21T05:36:22.575Z,1.20
2023-12-21T05:38:51.397Z,1.15
2023-12-21T05:41:20.577Z,2.95
2023-12-21T05:43:49.499Z,1.52
2023-12-21T05:46:18.017Z,2.85
2023-12-21T05:48:48.897Z,0.50
2023-12-21T05:51:17.285Z,1.08
2023-12-21T05:53:46.005Z,2.10
2023-12-21T05:56:14.382Z,1.27
2023-12-21T05:58:42.972Z,2.75
2023-12-21T06:01:11.903Z,1.85
2023-12-21T06:03:40.429Z,1.08
2023-12-21T06:06:10.374Z,2.55
2023-12-21T06:08:38.814Z,1.23
2023-12-21T06:11:07.974Z,0.57
2023-12-21T06:13:37.050Z,2.10
2023-12-21T06:16:05.914Z,1.60
2023-12-21T06:18:34.359Z,1.67
2023-12-21T06:21:03.078Z,3.15
2023-12-21T06:23:32.869Z,1.65
2023-12-21T06:26:02.182Z,1.88
2023-12-21T06:28:30.628Z,2.15
2023-12-21T06:30:59.353Z,1.60
2023-12-21T06:33:28.197Z,1.60
2023-12-21T06:35:57.173Z,2.38
2023-12-21T06:38:25.513Z,1.63
2023-12-21T06:40:55.636Z,1.90
2023-12-21T06:43:25.205Z,2.17
2023-12-21T06:45:54.139Z,1.13
2023-12-21T06:48:22.641Z,2.88
2023-12-21T06:50:51.060Z,1.35
2023-12-21T06:53:19.782Z,3.78
2023-12-21T06:55:48.605Z,2.42
2023-12-21T06:58:18.375Z,0.98
2023-12-21T07:00:47.292Z,1.42
2023-12-21T07:03:15.727Z,1.67
2023-12-21T07:05:44.147Z,1.10
2023-12-21T07:08:12.520Z,0.45
2023-12-21T07:10:40.922Z,1.23
2023-12-21T07:13:09.665Z,1.40
2023-12-21T07:15:39.772Z,3.10
2023-12-21T07:18:08.536Z,1.70
2023-12-21T07:20:36.877Z,1.10
2023-12-21T07:23:05.845Z,1.17
2023-12-21T07:25:34.243Z,1.02
2023-12-21T07:28:03.022Z,0.80
2023-12-21T07:30:31.594Z,1.23
2023-12-21T07:33:02.975Z,0.77
2023-12-21T07:35:32.482Z,0.80
2023-12-21T07:38:01.281Z,0.55
2023-12-21T07:40:29.695Z,0.77
2023-12-21T07:42:58.427Z,0.60
2023-12-21T07:45:27.151Z,0.40
2023-12-21T07:47:55.588Z,1.13
2023-12-21T07:50:25.373Z,0.68
2023-12-21T07:52:57.587Z,1.35
2023-12-21T07:55:26.294Z,0.55
2023-12-21T07:57:55.093Z,0.40
2023-12-21T08:00:23.425Z,0.43
2023-12-21T08:02:52.118Z,0.40
2023-12-21T08:05:20.738Z,0.43
2023-12-21T08:07:51.143Z,0.57
2023-12-21T08:10:19.998Z,0.73
2023-12-21T08:12:49.139Z,0.77
2023-12-21T08:15:17.580Z,0.47
2023-12-21T08:17:48.983Z,1.65
2023-12-21T08:20:17.794Z,0.40
2023-12-21T08:22:46.542Z,0.50
2023-12-21T08:25:16.664Z,0.80
2023-12-21T08:27:45.131Z,0.30
2023-12-21T08:30:14.411Z,0.40
2023-12-21T08:32:43.299Z,0.35
2023-12-21T08:35:11.678Z,0.28
2023-12-21T08:37:40.090Z,0.40
2023-12-21T08:40:09.928Z,0.43
2023-12-21T08:42:39.701Z,0.60
2023-12-21T08:45:09.651Z,0.40
2023-12-21T08:47:42.310Z,0.20
2023-12-21T08:50:11.563Z,0.50
2023-12-21T08:52:40.572Z,4.95
2023-12-21T08:55:10.789Z,0.50
2023-12-21T08:57:40.757Z,0.80
2023-12-21T09:00:15.119Z,0.40
2023-12-21T09:02:44.053Z,0.20
2023-12-21T09:05:14.886Z,0.43
2023-12-21T09:07:43.553Z,0.63
2023-12-21T09:10:12.395Z,1.48
2023-12-21T09:12:42.212Z,0.75
2023-12-21T09:15:11.459Z,0.40
2023-12-21T09:17:39.896Z,0.30
2023-12-21T09:20:10.556Z,0.40
2023-12-21T09:22:39.487Z,0.30
2023-12-21T09:25:08.812Z,0.30
2023-12-21T09:27:37.244Z,1.40
2023-12-21T09:30:09.294Z,0.30
2023-12-21T09:32:37.707Z,0.50
2023-12-21T09:35:08.051Z,0.52
2023-12-21T09:37:37.178Z,0.52
2023-12-21T09:40:08.199Z,0.35
2023-12-21T09:42:44.774Z,2.45
2023-12-21T09:45:15.487Z,0.50
2023-12-21T09:47:44.849Z,0.70
2023-12-21T09:50:13.860Z,0.45
2023-12-21T09:52:43.010Z,0.43
2023-12-21T09:55:12.170Z,1.00
2023-12-21T09:57:41.087Z,0.60
2023-12-21T10:00:11.529Z,0.38
2023-12-21T10:02:41.398Z,0.90
2023-12-21T10:05:10.639Z,0.82
2023-12-21T10:07:40.892Z,0.30
2023-12-21T10:10:10.431Z,0.30
2023-12-21T10:12:42.425Z,0.38
2023-12-21T10:15:13.140Z,1.27
2023-12-21T10:17:43.392Z,0.65
2023-12-21T10:20:13.888Z,0.45
2023-12-21T10:22:44.300Z,0.75
2023-12-21T10:25:14.736Z,0.45
2023-12-21T10:27:54.376Z,0.57
2023-12-21T10:30:24.136Z,1.20
2023-12-21T10:32:58.511Z,0.45
2023-12-21T10:35:28.323Z,0.75
2023-12-21T10:37:57.283Z,0.30
2023-12-21T10:40:26.261Z,0.47
2023-12-21T10:42:54.995Z,1.80
2023-12-21T10:45:33.448Z,1.13
2023-12-21T10:48:10.353Z,0.20
2023-12-21T10:50:40.819Z,0.63
2023-12-21T10:53:12.121Z,1.20
2023-12-21T10:55:42.562Z,0.70
2023-12-21T10:58:11.904Z,1.88
2023-12-21T11:00:42.961Z,0.60
2023-12-21T11:03:18.033Z,0.95
2023-12-21T11:05:47.209Z,0.40
2023-12-21T11:08:15.684Z,0.85
2023-12-21T11:10:44.854Z,0.57
2023-12-21T11:13:13.764Z,0.40
2023-12-21T11:15:42.973Z,0.55
2023-12-21T11:18:16.601Z,0.30
2023-12-21T11:23:19.298Z,0.40
2023-12-21T11:25:57.453Z,0.95
2023-12-21T11:28:32.419Z,2.45
2023-12-21T11:31:00.955Z,0.30
2023-12-21T11:33:34.227Z,0.20
2023-12-21T11:36:03.983Z,0.60
2023-12-21T11:38:51.341Z,0.25
2023-12-21T11:41:25.758Z,0.43
2023-12-21T11:43:58.960Z,0.80
2023-12-21T11:46:27.672Z,0.30
2023-12-21T11:48:57.516Z,0.73
2023-12-21T11:51:25.966Z,0.77
2023-12-21T11:53:54.525Z,1.27
2023-12-21T11:56:23.482Z,0.28
2023-12-21T11:58:53.280Z,1.25
2023-12-21T12:01:27.437Z,0.98
2023-12-21T12:03:58.681Z,0.30
2023-12-21T12:06:29.888Z,0.30
2023-12-21T12:08:58.974Z,0.30
2023-12-21T12:11:28.120Z,0.47
2023-12-21T12:13:59.659Z,0.77
2023-12-21T12:16:28.224Z,0.40
2023-12-21T12:18:58.259Z,0.35
2023-12-21T12:21:27.011Z,0.40
2023-12-21T12:23:56.094Z,0.63
2023-12-21T12:26:25.352Z,0.20
2023-12-21T12:28:55.014Z,0.25
2023-12-21T12:31:23.788Z,0.30
2023-12-21T12:33:52.983Z,0.30
2023-12-21T12:36:22.795Z,0.20
2023-12-21T12:38:52.472Z,0.47
2023-12-21T12:41:22.238Z,0.30
2023-12-21T12:43:51.283Z,0.25
2023-12-21T12:46:21.797Z,0.40
2023-12-21T12:48:50.990Z,0.30
2023-12-21T12:51:19.550Z,0.30
2023-12-21T12:53:49.393Z,0.25
2023-12-21T12:56:17.899Z,0.30
2023-12-21T12:58:56.242Z,0.35
2023-12-21T13:01:29.630Z,0.30
2023-12-21T13:03:59.373Z,0.20
2023-12-21T13:06:27.865Z,0.57
2023-12-21T13:08:57.716Z,0.30
2023-12-21T13:11:26.092Z,0.30
2023-12-21T13:13:54.745Z,1.17
2023-12-21T13:16:23.784Z,0.35
2023-12-21T13:18:52.324Z,0.43
2023-12-21T13:21:20.743Z,1.75
2023-12-21T13:23:49.150Z,0.85
2023-12-21T13:26:19.809Z,0.30
2023-12-21T13:28:48.363Z,1.67
2023-12-21T13:31:17.433Z,2.30
2023-12-21T13:33:45.966Z,0.40
2023-12-21T13:36:14.355Z,0.85
2023-12-21T13:38:43.057Z,0.25
2023-12-21T13:41:11.740Z,0.38
2023-12-21T13:43:44.171Z,0.70
2023-12-21T13:46:12.748Z,0.68
2023-12-21T13:48:41.235Z,0.68
2023-12-21T13:51:09.679Z,0.40
2023-12-21T13:53:38.064Z,1.70
2023-12-21T13:56:07.380Z,4.40
2023-12-21T13:58:35.865Z,1.45
2023-12-21T14:01:06.202Z,1.33
2023-12-21T14:03:35.748Z,2.33
2023-12-21T14:06:05.347Z,0.85
2023-12-21T14:08:34.423Z,1.17
2023-12-21T14:11:03.083Z,5.20
2023-12-21T14:13:31.446Z,0.50
2023-12-21T14:15:59.839Z,0.30
2023-12-21T14:18:30.059Z,1.75
2023-12-21T14:20:58.458Z,0.95
2023-12-21T14:23:26.838Z,1.13
2023-12-21T14:25:55.803Z,0.70
2023-12-21T14:28:25.324Z,2.67
2023-12-21T14:30:54.424Z,1.58
2023-12-21T14:33:23.039Z,3.47
2023-12-21T14:35:52.869Z,1.35
2023-12-21T14:38:21.886Z,1.90
2023-12-21T14:40:50.859Z,4.10
2023-12-21T14:43:19.239Z,2.50
2023-12-21T14:45:47.592Z,2.42
2023-12-21T14:48:18.356Z,2.65
2023-12-21T14:50:47.128Z,5.85
2023-12-21T14:53:16.976Z,4.57
2023-12-21T14:55:45.420Z,2.45
2023-12-21T14:58:13.907Z,6.15
2023-12-21T15:00:42.349Z,4.28
2023-12-21T15:03:11.666Z,4.68
2023-12-21T15:05:40.250Z,4.88
2023-12-21T15:08:09.840Z,4.38
2023-12-21T15:10:40.202Z,1.75
2023-12-21T15:13:11.065Z,4.95
2023-12-21T15:15:39.613Z,5.28
2023-12-21T15:18:08.214Z,1.33
2023-12-21T15:20:37.201Z,3.00
2023-12-21T15:23:05.975Z,5.07
2023-12-21T15:25:34.832Z,3.55
2023-12-21T15:28:04.963Z,5.68
2023-12-21T15:30:35.084Z,2.83
2023-12-21T15:33:05.092Z,1.48
2023-12-21T15:35:33.530Z,8.40
2023-12-21T15:38:02.345Z,3.55
2023-12-21T15:40:30.856Z,3.88
2023-12-21T15:42:59.442Z,3.50
2023-12-21T15:45:29.737Z,1.70
2023-12-21T15:47:58.094Z,2.80
2023-12-21T15:50:26.464Z,5.53
2023-12-21T15:52:54.903Z,2.10
2023-12-21T15:55:23.446Z,4.70
2023-12-21T15:57:51.920Z,0.90
2023-12-21T16:00:22.091Z,2.08
2023-12-21T16:02:51.972Z,3.33
2023-12-21T16:05:20.433Z,4.82
2023-12-21T16:07:48.942Z,4.75
2023-12-21T16:10:17.524Z,7.15
2023-12-21T16:12:46.595Z,6.10
2023-12-21T16:15:15.112Z,1.27
2023-12-21T16:17:43.499Z,14.07
2023-12-21T16:20:18.615Z,3.00
2023-12-21T16:22:47.537Z,4.72
2023-12-21T16:25:16.307Z,7.85
2023-12-21T16:27:45.646Z,6.50
2023-12-21T16:30:19.241Z,4.80
2023-12-21T16:32:48.189Z,5.80
2023-12-21T16:35:18.452Z,7.63
2023-12-21T16:37:47.980Z,5.63
2023-12-21T16:40:21.076Z,8.93
2023-12-21T16:42:49.879Z,6.53
2023-12-21T16:45:18.680Z,4.68
2023-12-21T16:47:47.139Z,6.13
2023-12-21T16:50:15.593Z,7.43
2023-12-21T16:52:46.086Z,6.63
2023-12-21T16:55:14.737Z,4.70
2023-12-21T16:57:43.110Z,6.35
2023-12-21T17:00:12.540Z,6.88
2023-12-21T17:02:41.006Z,8.40
2023-12-21T17:05:09.579Z,8.23
2023-12-21T17:07:38.015Z,4.00
2023-12-21T17:10:09.472Z,7.63
2023-12-21T17:12:38.558Z,7.38
2023-12-21T17:15:07.749Z,6.40
2023-12-21T17:17:36.561Z,5.25
2023-12-21T17:20:05.518Z,5.93
2023-12-21T17:22:34.056Z,3.50
2023-12-21T17:25:02.449Z,5.18
2023-12-21T17:27:32.205Z,7.13
2023-12-21T17:30:00.932Z,9.40
2023-12-21T17:32:29.285Z,5.90
2023-12-21T17:34:57.836Z,6.80
2023-12-21T17:37:26.816Z,3.25
2023-12-21T17:39:55.170Z,14.20
2023-12-21T17:42:24.303Z,5.70
2023-12-21T17:44:54.436Z,11.50
2023-12-21T17:47:23.186Z,9.35
2023-12-21T17:49:51.734Z,8.40
2023-12-21T17:52:20.144Z,6.63
2023-12-21T17:54:49.320Z,5.25
2023-12-21T17:57:18.380Z,5.68
2023-12-21T17:59:46.921Z,7.78
2023-12-21T18:02:16.729Z,4.82
2023-12-21T18:04:45.691Z,14.75
2023-12-21T18:07:14.438Z,12.30
2023-12-21T18:09:42.903Z,8.43
2023-12-21T18:12:11.659Z,8.45
2023-12-21T18:14:40.904Z,10.63
2023-12-21T18:17:09.335Z,12.80
2023-12-21T18:19:39.262Z,4.45
2023-12-21T18:22:12.280Z,15.80
2023-12-21T18:24:41.778Z,14.18
2023-12-21T18:27:10.142Z,20.80
2023-12-21T18:29:38.580Z,13.95
2023-12-21T18:32:08.153Z,13.77
2023-12-21T18:34:36.729Z,11.98
2023-12-21T18:37:06.903Z,9.93
2023-12-21T18:39:35.422Z,12.38
2023-12-21T18:42:04.476Z,8.98
2023-12-21T18:44:32.861Z,16.05
2023-12-21T18:47:01.226Z,8.43
2023-12-21T18:49:29.748Z,10.32
2023-12-21T18:51:58.623Z,17.20
2023-12-21T18:54:28.388Z,12.73
2023-12-21T18:56:56.798Z,6.82
2023-12-21T18:59:25.215Z,13.75
2023-12-21T19:01:54.881Z,10.27
2023-12-21T19:04:23.410Z,11.73
2023-12-21T19:06:51.863Z,8.85
2023-12-21T19:09:21.481Z,20.95
2023-12-21T19:11:51.246Z,16.40
2023-12-21T19:14:20.273Z,20.25
2023-12-21T19:16:48.785Z,11.18
2023-12-21T19:19:17.356Z,13.60
2023-12-21T19:21:46.990Z,17.70
2023-12-21T19:24:15.361Z,15.30
2023-12-21T19:26:43.754Z,12.90
2023-12-21T19:29:13.667Z,13.77
2023-12-21T19:31:42.054Z,13.80
2023-12-21T19:34:10.512Z,11.98
2023-12-21T19:36:38.943Z,6.00
2023-12-21T19:39:08.292Z,12.35
2023-12-21T19:41:36.818Z,11.93
2023-12-21T19:44:05.329Z,28.10
2023-12-21T19:46:35.318Z,13.32
2023-12-21T19:49:03.920Z,15.80
2023-12-21T19:51:32.358Z,16.45
2023-12-21T19:54:00.860Z,11.18
2023-12-21T19:56:29.740Z,15.98
2023-12-21T19:58:58.178Z,10.50
2023-12-21T20:01:27.018Z,14.20
2023-12-21T20:03:56.982Z,17.73
2023-12-21T20:06:25.374Z,11.88
2023-12-21T20:08:53.719Z,19.13
2023-12-21T20:11:22.251Z,14.70
2023-12-21T20:13:50.775Z,12.90
2023-12-21T20:16:19.262Z,9.68
2023-12-21T20:18:50.463Z,12.10
2023-12-21T20:21:20.448Z,14.18
2023-12-21T20:23:51.389Z,24.42
2023-12-21T20:26:19.739Z,11.50
2023-12-21T20:28:48.419Z,6.93
2023-12-21T20:31:17.656Z,10.77
2023-12-21T20:33:46.417Z,12.07
2023-12-21T20:36:15.242Z,8.07
2023-12-21T20:38:44.999Z,8.85
2023-12-21T20:41:13.437Z,10.40
2023-12-21T20:43:42.212Z,12.55
2023-12-21T20:46:11.163Z,9.70
2023-12-21T20:48:39.579Z,4.93
2023-12-21T20:51:08.125Z,15.18
2023-12-21T20:53:36.831Z,10.95
2023-12-21T20:56:07.562Z,16.33
2023-12-21T20:58:36.751Z,12.73
2023-12-21T21:01:05.926Z,8.35
2023-12-21T21:03:38.861Z,8.40
2023-12-21T21:06:08.572Z,12.45
2023-12-21T21:08:36.948Z,30.42
2023-12-21T21:11:07.416Z,14.15
2023-12-21T21:13:37.882Z,16.33
2023-12-21T21:16:08.346Z,15.50
2023-12-21T21:18:36.845Z,15.07
2023-12-21T21:21:05.351Z,8.73
2023-12-21T21:23:34.163Z,10.02
2023-12-21T21:26:04.025Z,10.95
2023-12-21T21:28:33.952Z,17.27
2023-12-21T21:31:02.322Z,15.77
2023-12-21T21:33:30.872Z,25.83
2023-12-21T21:35:59.317Z,17.45
2023-12-21T21:38:27.702Z,14.55
2023-12-21T21:40:59.571Z,12.45
2023-12-21T21:43:30.187Z,24.38
2023-12-21T21:46:00.246Z,12.60
2023-12-21T21:48:28.706Z,5.20
2023-12-21T21:50:57.157Z,9.98
2023-12-21T21:53:25.998Z,13.80
2023-12-21T21:55:54.423Z,14.15
2023-12-21T21:58:23.163Z,15.68
2023-12-21T22:00:51.551Z,16.70
2023-12-21T22:03:21.353Z,6.55
2023-12-21T22:05:49.821Z,8.55
2023-12-21T22:08:18.271Z,6.07
2023-12-21T22:10:46.620Z,11.50
2023-12-21T22:13:15.387Z,5.10
2023-12-21T22:15:43.883Z,7.90
2023-12-21T22:18:12.606Z,10.10
2023-12-21T22:20:44.193Z,9.85
2023-12-21T22:23:12.678Z,4.93
2023-12-21T22:25:41.553Z,6.88
2023-12-21T22:28:10.004Z,14.10
2023-12-21T22:30:38.810Z,4.53
2023-12-21T22:33:07.728Z,16.17
2023-12-21T22:35:36.196Z,9.65
2023-12-21T22:38:06.395Z,7.40
2023-12-21T22:40:34.843Z,9.00
2023-12-21T22:43:03.239Z,13.70
2023-12-21T22:45:31.579Z,13.82
2023-12-21T22:48:00.344Z,17.95
2023-12-21T22:50:28.859Z,14.35
2023-12-21T22:52:57.544Z,7.68
2023-12-21T22:55:28.126Z,10.73
2023-12-21T22:57:56.487Z,9.98
2023-12-21T23:00:24.894Z,11.57
2023-12-21T23:02:53.317Z,9.10
2023-12-21T23:05:22.370Z,8.95
2023-12-21T23:07:51.143Z,9.40
2023-12-21T23:10:19.695Z,9.93
2023-12-21T23:12:49.922Z,9.77
2023-12-21T23:15:18.581Z,9.02
2023-12-21T23:17:47.036Z,8.45
2023-12-21T23:20:15.820Z,10.68
2023-12-21T23:22:44.275Z,4.72
2023-12-21T23:25:12.810Z,10.77
2023-12-21T23:27:41.175Z,6.60
2023-12-21T23:30:13.293Z,11.02
2023-12-21T23:32:41.688Z,5.28
2023-12-21T23:35:17.587Z,12.15
2023-12-21T23:37:48.610Z,3.50
2023-12-21T23:40:17.671Z,5.00
2023-12-21T23:42:46.333Z,4.60
2023-12-21T23:45:16.834Z,6.82
2023-12-21T23:47:45.483Z,1.73
2023-12-21T23:50:14.020Z,5.13
2023-12-21T23:52:42.928Z,2.58
2023-12-21T23:55:11.394Z,2.72
2023-12-21T23:57:39.753Z,3.78
